sensor_id;sensor_type;location;lat;lon;timestamp;temperature;humidity
48666;DHT22;34452;50.796;4.994;2023-06-10T00:01:54;20.80;87.90
48666;DHT22;34452;50.796;4.994;2023-06-10T00:04:25;20.80;88.00
48666;DHT22;34452;50.796;4.994;2023-06-10T00:06:51;20.80;87.70
48666;DHT22;34452;50.796;4.994;2023-06-10T00:09:17;20.60;88.60
48666;DHT22;34452;50.796;4.994;2023-06-10T00:11:44;20.50;88.40
48666;DHT22;34452;50.796;4.994;2023-06-10T00:14:10;20.50;88.20
48666;DHT22;34452;50.796;4.994;2023-06-10T00:16:35;20.40;89.10
48666;DHT22;34452;50.796;4.994;2023-06-10T00:19:03;20.30;89.70
48666;DHT22;34452;50.796;4.994;2023-06-10T00:21:30;20.30;90.00
48666;DHT22;34452;50.796;4.994;2023-06-10T00:24:04;20.30;90.70
48666;DHT22;34452;50.796;4.994;2023-06-10T00:26:31;20.10;91.90
48666;DHT22;34452;50.796;4.994;2023-06-10T00:28:57;19.90;92.20
48666;DHT22;34452;50.796;4.994;2023-06-10T00:31:23;19.90;91.90
48666;DHT22;34452;50.796;4.994;2023-06-10T00:33:48;19.90;91.70
48666;DHT22;34452;50.796;4.994;2023-06-10T00:36:14;19.90;92.30
48666;DHT22;34452;50.796;4.994;2023-06-10T00:38:40;19.90;92.90
48666;DHT22;34452;50.796;4.994;2023-06-10T00:41:06;19.90;93.30
48666;DHT22;34452;50.796;4.994;2023-06-10T00:43:33;19.90;93.00
48666;DHT22;34452;50.796;4.994;2023-06-10T00:45:59;19.90;92.70
48666;DHT22;34452;50.796;4.994;2023-06-10T00:48:26;19.90;92.60
48666;DHT22;34452;50.796;4.994;2023-06-10T00:50:52;19.90;92.80
48666;DHT22;34452;50.796;4.994;2023-06-10T00:53:18;19.90;93.40
48666;DHT22;34452;50.796;4.994;2023-06-10T00:55:44;19.80;93.50
48666;DHT22;34452;50.796;4.994;2023-06-10T00:58:10;19.70;93.50
48666;DHT22;34452;50.796;4.994;2023-06-10T01:00:36;19.80;93.20
48666;DHT22;34452;50.796;4.994;2023-06-10T01:03:02;19.70;92.90
48666;DHT22;34452;50.796;4.994;2023-06-10T01:05:34;19.70;93.20
48666;DHT22;34452;50.796;4.994;2023-06-10T01:08:09;19.70;93.20
48666;DHT22;34452;50.796;4.994;2023-06-10T01:13:28;19.40;94.50
48666;DHT22;34452;50.796;4.994;2023-06-10T01:15:54;19.30;94.80
48666;DHT22;34452;50.796;4.994;2023-06-10T01:18:20;19.20;95.70
48666;DHT22;34452;50.796;4.994;2023-06-10T01:20:47;19.00;96.20
48666;DHT22;34452;50.796;4.994;2023-06-10T01:23:14;18.90;97.00
48666;DHT22;34452;50.796;4.994;2023-06-10T01:25:45;18.70;97.60
48666;DHT22;34452;50.796;4.994;2023-06-10T01:28:25;18.70;98.30
48666;DHT22;34452;50.796;4.994;2023-06-10T01:33:45;18.60;99.30
48666;DHT22;34452;50.796;4.994;2023-06-10T01:36:12;18.50;99.90
48666;DHT22;34452;50.796;4.994;2023-06-10T01:38:42;18.40;99.90
48666;DHT22;34452;50.796;4.994;2023-06-10T01:41:10;18.40;99.90
48666;DHT22;34452;50.796;4.994;2023-06-10T01:43:38;18.30;99.90
48666;DHT22;34452;50.796;4.994;2023-06-10T01:46:04;18.30;99.90
48666;DHT22;34452;50.796;4.994;2023-06-10T01:48:31;18.20;99.90
48666;DHT22;34452;50.796;4.994;2023-06-10T01:50:57;18.00;99.90
48666;DHT22;34452;50.796;4.994;2023-06-10T01:53:23;17.80;99.90
48666;DHT22;34452;50.796;4.994;2023-06-10T01:55:49;17.70;99.90
48666;DHT22;34452;50.796;4.994;2023-06-10T01:58:14;17.60;99.90
48666;DHT22;34452;50.796;4.994;2023-06-10T02:00:40;17.50;99.90
48666;DHT22;34452;50.796;4.994;2023-06-10T02:03:06;17.40;99.90
48666;DHT22;34452;50.796;4.994;2023-06-10T02:05:32;17.40;99.90
48666;DHT22;34452;50.796;4.994;2023-06-10T02:07:58;17.40;99.90
48666;DHT22;34452;50.796;4.994;2023-06-10T02:10:24;17.40;99.90
48666;DHT22;34452;50.796;4.994;2023-06-10T02:12:50;17.40;99.90
48666;DHT22;34452;50.796;4.994;2023-06-10T02:15:15;17.40;99.90
48666;DHT22;34452;50.796;4.994;2023-06-10T02:17:41;17.40;99.90
48666;DHT22;34452;50.796;4.994;2023-06-10T02:20:07;17.40;99.90
48666;DHT22;34452;50.796;4.994;2023-06-10T02:22:37;17.30;99.90
48666;DHT22;34452;50.796;4.994;2023-06-10T02:25:03;17.30;99.90
48666;DHT22;34452;50.796;4.994;2023-06-10T02:27:29;17.20;99.90
48666;DHT22;34452;50.796;4.994;2023-06-10T02:29:56;17.30;99.90
48666;DHT22;34452;50.796;4.994;2023-06-10T02:32:21;17.20;99.90
48666;DHT22;34452;50.796;4.994;2023-06-10T02:34:47;17.20;99.90
48666;DHT22;34452;50.796;4.994;2023-06-10T02:37:15;17.10;99.90
48666;DHT22;34452;50.796;4.994;2023-06-10T02:39:41;17.10;99.90
48666;DHT22;34452;50.796;4.994;2023-06-10T02:42:07;17.20;99.90
48666;DHT22;34452;50.796;4.994;2023-06-10T02:44:33;17.10;99.90
48666;DHT22;34452;50.796;4.994;2023-06-10T02:46:58;17.20;99.90
48666;DHT22;34452;50.796;4.994;2023-06-10T02:49:24;17.20;99.90
48666;DHT22;34452;50.796;4.994;2023-06-10T02:51:53;17.20;99.90
48666;DHT22;34452;50.796;4.994;2023-06-10T02:54:20;17.20;99.90
48666;DHT22;34452;50.796;4.994;2023-06-10T02:56:45;17.20;99.90
48666;DHT22;34452;50.796;4.994;2023-06-10T02:59:13;17.10;99.90
48666;DHT22;34452;50.796;4.994;2023-06-10T03:01:40;17.10;99.90
48666;DHT22;34452;50.796;4.994;2023-06-10T03:04:06;17.10;99.90
48666;DHT22;34452;50.796;4.994;2023-06-10T03:06:32;17.10;99.90
48666;DHT22;34452;50.796;4.994;2023-06-10T03:09:01;17.10;99.90
48666;DHT22;34452;50.796;4.994;2023-06-10T03:11:27;17.10;99.90
48666;DHT22;34452;50.796;4.994;2023-06-10T03:13:53;17.10;99.90
48666;DHT22;34452;50.796;4.994;2023-06-10T03:16:19;17.10;99.90
48666;DHT22;34452;50.796;4.994;2023-06-10T03:18:45;17.00;99.90
48666;DHT22;34452;50.796;4.994;2023-06-10T03:21:11;17.00;99.90
48666;DHT22;34452;50.796;4.994;2023-06-10T03:23:37;16.90;99.90
48666;DHT22;34452;50.796;4.994;2023-06-10T03:26:04;16.90;99.90
48666;DHT22;34452;50.796;4.994;2023-06-10T03:28:31;16.80;99.90
48666;DHT22;34452;50.796;4.994;2023-06-10T03:30:56;16.70;99.90
48666;DHT22;34452;50.796;4.994;2023-06-10T03:33:22;16.60;99.90
48666;DHT22;34452;50.796;4.994;2023-06-10T03:35:48;16.50;99.90
48666;DHT22;34452;50.796;4.994;2023-06-10T03:38:14;16.50;99.90
48666;DHT22;34452;50.796;4.994;2023-06-10T03:40:40;16.40;99.90
48666;DHT22;34452;50.796;4.994;2023-06-10T03:43:05;16.30;99.90
48666;DHT22;34452;50.796;4.994;2023-06-10T03:45:31;16.30;99.90
48666;DHT22;34452;50.796;4.994;2023-06-10T03:47:57;16.30;99.90
48666;DHT22;34452;50.796;4.994;2023-06-10T03:50:23;16.40;99.90
48666;DHT22;34452;50.796;4.994;2023-06-10T03:52:50;16.40;99.90
48666;DHT22;34452;50.796;4.994;2023-06-10T03:55:16;16.50;99.90
48666;DHT22;34452;50.796;4.994;2023-06-10T03:57:42;16.50;99.90
48666;DHT22;34452;50.796;4.994;2023-06-10T04:00:08;16.50;99.90
48666;DHT22;34452;50.796;4.994;2023-06-10T04:02:37;16.50;99.90
48666;DHT22;34452;50.796;4.994;2023-06-10T04:05:12;16.40;99.90
48666;DHT22;34452;50.796;4.994;2023-06-10T04:07:38;16.50;99.90
48666;DHT22;34452;50.796;4.994;2023-06-10T04:10:07;16.50;99.90
48666;DHT22;34452;50.796;4.994;2023-06-10T04:12:33;16.60;99.90
48666;DHT22;34452;50.796;4.994;2023-06-10T04:14:58;16.50;99.90
48666;DHT22;34452;50.796;4.994;2023-06-10T04:17:25;16.50;99.90
48666;DHT22;34452;50.796;4.994;2023-06-10T04:19:50;16.50;99.90
48666;DHT22;34452;50.796;4.994;2023-06-10T04:22:16;16.50;99.90
48666;DHT22;34452;50.796;4.994;2023-06-10T04:24:43;16.60;99.90
48666;DHT22;34452;50.796;4.994;2023-06-10T04:27:09;16.70;99.90
48666;DHT22;34452;50.796;4.994;2023-06-10T04:29:35;16.80;99.90
48666;DHT22;34452;50.796;4.994;2023-06-10T04:32:02;16.90;99.90
48666;DHT22;34452;50.796;4.994;2023-06-10T04:34:28;16.90;99.90
48666;DHT22;34452;50.796;4.994;2023-06-10T04:36:54;17.00;99.90
48666;DHT22;34452;50.796;4.994;2023-06-10T04:39:19;17.10;99.90
48666;DHT22;34452;50.796;4.994;2023-06-10T04:41:45;17.10;99.90
48666;DHT22;34452;50.796;4.994;2023-06-10T04:44:12;17.10;99.90
48666;DHT22;34452;50.796;4.994;2023-06-10T04:46:38;17.10;99.90
48666;DHT22;34452;50.796;4.994;2023-06-10T04:49:03;17.10;99.90
48666;DHT22;34452;50.796;4.994;2023-06-10T04:51:30;17.10;99.90
48666;DHT22;34452;50.796;4.994;2023-06-10T04:53:57;17.10;99.90
48666;DHT22;34452;50.796;4.994;2023-06-10T04:56:23;17.20;99.90
48666;DHT22;34452;50.796;4.994;2023-06-10T04:58:49;17.30;99.90
48666;DHT22;34452;50.796;4.994;2023-06-10T05:01:15;17.50;99.90
48666;DHT22;34452;50.796;4.994;2023-06-10T05:03:41;17.50;99.90
48666;DHT22;34452;50.796;4.994;2023-06-10T05:06:07;17.60;99.90
48666;DHT22;34452;50.796;4.994;2023-06-10T05:08:33;17.70;99.90
48666;DHT22;34452;50.796;4.994;2023-06-10T05:10:59;17.80;99.90
48666;DHT22;34452;50.796;4.994;2023-06-10T05:13:24;17.90;99.90
48666;DHT22;34452;50.796;4.994;2023-06-10T05:15:50;17.90;99.90
48666;DHT22;34452;50.796;4.994;2023-06-10T05:18:16;18.00;99.90
48666;DHT22;34452;50.796;4.994;2023-06-10T05:20:42;18.10;99.90
48666;DHT22;34452;50.796;4.994;2023-06-10T05:23:07;18.20;99.90
48666;DHT22;34452;50.796;4.994;2023-06-10T05:25:33;18.30;99.90
48666;DHT22;34452;50.796;4.994;2023-06-10T05:27:59;18.40;99.90
48666;DHT22;34452;50.796;4.994;2023-06-10T05:30:25;18.40;99.90
48666;DHT22;34452;50.796;4.994;2023-06-10T05:32:52;18.50;99.90
48666;DHT22;34452;50.796;4.994;2023-06-10T05:35:18;18.50;99.90
48666;DHT22;34452;50.796;4.994;2023-06-10T05:37:44;18.60;99.90
48666;DHT22;34452;50.796;4.994;2023-06-10T05:40:11;18.70;99.90
48666;DHT22;34452;50.796;4.994;2023-06-10T05:42:36;18.90;99.90
48666;DHT22;34452;50.796;4.994;2023-06-10T05:45:03;19.00;99.90
48666;DHT22;34452;50.796;4.994;2023-06-10T05:47:29;19.10;99.90
48666;DHT22;34452;50.796;4.994;2023-06-10T05:49:54;19.30;99.90
48666;DHT22;34452;50.796;4.994;2023-06-10T05:52:20;19.40;99.90
48666;DHT22;34452;50.796;4.994;2023-06-10T05:54:46;19.50;99.90
48666;DHT22;34452;50.796;4.994;2023-06-10T05:57:12;19.60;99.90
48666;DHT22;34452;50.796;4.994;2023-06-10T05:59:38;19.70;99.90
48666;DHT22;34452;50.796;4.994;2023-06-10T06:02:04;19.70;99.90
48666;DHT22;34452;50.796;4.994;2023-06-10T06:04:30;19.80;99.90
48666;DHT22;34452;50.796;4.994;2023-06-10T06:06:55;19.90;99.90
48666;DHT22;34452;50.796;4.994;2023-06-10T06:09:21;19.90;99.90
48666;DHT22;34452;50.796;4.994;2023-06-10T06:11:47;20.00;99.90
48666;DHT22;34452;50.796;4.994;2023-06-10T06:14:12;20.10;99.90
48666;DHT22;34452;50.796;4.994;2023-06-10T06:16:38;20.20;99.90
48666;DHT22;34452;50.796;4.994;2023-06-10T06:19:04;20.20;99.90
48666;DHT22;34452;50.796;4.994;2023-06-10T06:21:30;20.30;99.90
48666;DHT22;34452;50.796;4.994;2023-06-10T06:23:55;20.40;99.90
48666;DHT22;34452;50.796;4.994;2023-06-10T06:26:21;20.50;99.90
48666;DHT22;34452;50.796;4.994;2023-06-10T06:28:47;20.60;99.90
48666;DHT22;34452;50.796;4.994;2023-06-10T06:31:12;20.70;99.90
48666;DHT22;34452;50.796;4.994;2023-06-10T06:33:38;20.70;99.90
48666;DHT22;34452;50.796;4.994;2023-06-10T06:36:04;20.80;99.90
48666;DHT22;34452;50.796;4.994;2023-06-10T06:38:30;20.90;99.90
48666;DHT22;34452;50.796;4.994;2023-06-10T06:40:55;20.90;99.90
48666;DHT22;34452;50.796;4.994;2023-06-10T06:43:21;21.00;99.90
48666;DHT22;34452;50.796;4.994;2023-06-10T06:45:47;21.10;99.90
48666;DHT22;34452;50.796;4.994;2023-06-10T06:48:13;21.20;99.90
48666;DHT22;34452;50.796;4.994;2023-06-10T06:50:38;21.30;99.90
48666;DHT22;34452;50.796;4.994;2023-06-10T06:53:05;21.30;99.90
48666;DHT22;34452;50.796;4.994;2023-06-10T06:55:30;21.40;99.90
48666;DHT22;34452;50.796;4.994;2023-06-10T06:57:56;21.50;99.90
48666;DHT22;34452;50.796;4.994;2023-06-10T07:00:22;21.60;99.90
48666;DHT22;34452;50.796;4.994;2023-06-10T07:02:48;21.70;99.90
48666;DHT22;34452;50.796;4.994;2023-06-10T07:05:14;21.80;99.90
48666;DHT22;34452;50.796;4.994;2023-06-10T07:07:40;21.90;99.90
48666;DHT22;34452;50.796;4.994;2023-06-10T07:10:06;21.90;99.90
48666;DHT22;34452;50.796;4.994;2023-06-10T07:12:32;22.00;99.90
48666;DHT22;34452;50.796;4.994;2023-06-10T07:14:57;22.10;99.90
48666;DHT22;34452;50.796;4.994;2023-06-10T07:17:23;22.20;99.90
48666;DHT22;34452;50.796;4.994;2023-06-10T07:19:49;22.30;99.90
48666;DHT22;34452;50.796;4.994;2023-06-10T07:22:15;22.40;99.90
48666;DHT22;34452;50.796;4.994;2023-06-10T07:24:40;22.40;99.90
48666;DHT22;34452;50.796;4.994;2023-06-10T07:27:06;22.50;99.90
48666;DHT22;34452;50.796;4.994;2023-06-10T07:29:32;22.60;99.90
48666;DHT22;34452;50.796;4.994;2023-06-10T07:31:58;22.70;99.90
48666;DHT22;34452;50.796;4.994;2023-06-10T07:34:24;22.80;99.90
48666;DHT22;34452;50.796;4.994;2023-06-10T07:36:50;23.00;99.90
48666;DHT22;34452;50.796;4.994;2023-06-10T07:39:15;23.10;99.90
48666;DHT22;34452;50.796;4.994;2023-06-10T07:41:41;23.20;99.90
48666;DHT22;34452;50.796;4.994;2023-06-10T07:44:07;23.30;99.90
48666;DHT22;34452;50.796;4.994;2023-06-10T07:46:32;23.40;99.60
48666;DHT22;34452;50.796;4.994;2023-06-10T07:48:58;23.50;99.40
48666;DHT22;34452;50.796;4.994;2023-06-10T07:51:24;23.50;98.20
48666;DHT22;34452;50.796;4.994;2023-06-10T07:53:50;23.60;97.60
48666;DHT22;34452;50.796;4.994;2023-06-10T07:56:15;23.70;98.00
48666;DHT22;34452;50.796;4.994;2023-06-10T07:58:41;23.80;97.90
48666;DHT22;34452;50.796;4.994;2023-06-10T08:01:07;23.90;98.20
48666;DHT22;34452;50.796;4.994;2023-06-10T08:03:33;24.00;97.20
48666;DHT22;34452;50.796;4.994;2023-06-10T08:05:58;24.00;96.40
48666;DHT22;34452;50.796;4.994;2023-06-10T08:08:24;24.10;95.60
48666;DHT22;34452;50.796;4.994;2023-06-10T08:10:50;24.20;95.60
48666;DHT22;34452;50.796;4.994;2023-06-10T08:13:15;24.40;95.50
48666;DHT22;34452;50.796;4.994;2023-06-10T08:15:41;24.50;95.20
48666;DHT22;34452;50.796;4.994;2023-06-10T08:18:07;24.50;94.60
48666;DHT22;34452;50.796;4.994;2023-06-10T08:20:33;24.70;93.40
48666;DHT22;34452;50.796;4.994;2023-06-10T08:22:58;24.70;92.90
48666;DHT22;34452;50.796;4.994;2023-06-10T08:25:24;24.80;93.60
48666;DHT22;34452;50.796;4.994;2023-06-10T08:27:50;24.90;93.10
48666;DHT22;34452;50.796;4.994;2023-06-10T08:30:17;24.90;92.50
48666;DHT22;34452;50.796;4.994;2023-06-10T08:32:43;25.00;93.10
48666;DHT22;34452;50.796;4.994;2023-06-10T08:35:09;25.00;91.80
48666;DHT22;34452;50.796;4.994;2023-06-10T08:37:35;25.00;93.30
48666;DHT22;34452;50.796;4.994;2023-06-10T08:40:00;25.20;92.70
48666;DHT22;34452;50.796;4.994;2023-06-10T08:42:43;25.10;92.10
48666;DHT22;34452;50.796;4.994;2023-06-10T08:45:16;25.10;92.30
48666;DHT22;34452;50.796;4.994;2023-06-10T08:47:45;25.20;92.50
48666;DHT22;34452;50.796;4.994;2023-06-10T08:50:11;25.30;91.40
48666;DHT22;34452;50.796;4.994;2023-06-10T08:52:37;25.40;90.50
48666;DHT22;34452;50.796;4.994;2023-06-10T08:55:19;25.40;90.40
48666;DHT22;34452;50.796;4.994;2023-06-10T08:57:48;25.50;90.40
48666;DHT22;34452;50.796;4.994;2023-06-10T09:00:15;25.60;88.80
48666;DHT22;34452;50.796;4.994;2023-06-10T09:02:42;25.70;90.40
48666;DHT22;34452;50.796;4.994;2023-06-10T09:05:09;25.80;90.60
48666;DHT22;34452;50.796;4.994;2023-06-10T09:07:35;26.00;90.60
48666;DHT22;34452;50.796;4.994;2023-06-10T09:10:03;26.00;88.80
48666;DHT22;34452;50.796;4.994;2023-06-10T09:12:29;26.00;88.10
48666;DHT22;34452;50.796;4.994;2023-06-10T09:14:55;26.10;88.70
48666;DHT22;34452;50.796;4.994;2023-06-10T09:17:21;26.20;90.90
48666;DHT22;34452;50.796;4.994;2023-06-10T09:19:47;26.30;89.00
48666;DHT22;34452;50.796;4.994;2023-06-10T09:22:14;26.40;86.20
48666;DHT22;34452;50.796;4.994;2023-06-10T09:24:40;26.50;85.70
48666;DHT22;34452;50.796;4.994;2023-06-10T09:27:08;26.50;83.50
48666;DHT22;34452;50.796;4.994;2023-06-10T09:29:53;26.60;86.30
48666;DHT22;34452;50.796;4.994;2023-06-10T09:32:20;26.60;83.90
48666;DHT22;34452;50.796;4.994;2023-06-10T09:34:46;26.80;83.40
48666;DHT22;34452;50.796;4.994;2023-06-10T09:37:12;26.90;84.80
48666;DHT22;34452;50.796;4.994;2023-06-10T09:39:40;26.80;83.50
48666;DHT22;34452;50.796;4.994;2023-06-10T09:42:19;26.80;84.10
48666;DHT22;34452;50.796;4.994;2023-06-10T09:45:03;26.70;79.20
48666;DHT22;34452;50.796;4.994;2023-06-10T09:47:29;26.80;84.90
48666;DHT22;34452;50.796;4.994;2023-06-10T09:49:55;26.90;80.10
48666;DHT22;34452;50.796;4.994;2023-06-10T09:52:21;27.00;78.20
48666;DHT22;34452;50.796;4.994;2023-06-10T09:54:48;27.00;77.80
48666;DHT22;34452;50.796;4.994;2023-06-10T09:57:13;27.10;79.30
48666;DHT22;34452;50.796;4.994;2023-06-10T09:59:41;27.30;78.60
48666;DHT22;34452;50.796;4.994;2023-06-10T10:02:14;27.20;73.20
48666;DHT22;34452;50.796;4.994;2023-06-10T10:04:40;27.40;74.60
48666;DHT22;34452;50.796;4.994;2023-06-10T10:07:05;27.40;74.30
48666;DHT22;34452;50.796;4.994;2023-06-10T10:09:33;27.60;74.40
48666;DHT22;34452;50.796;4.994;2023-06-10T10:11:58;27.70;72.40
48666;DHT22;34452;50.796;4.994;2023-06-10T10:14:28;27.80;73.00
48666;DHT22;34452;50.796;4.994;2023-06-10T10:16:57;27.90;72.00
48666;DHT22;34452;50.796;4.994;2023-06-10T10:19:28;28.10;69.40
48666;DHT22;34452;50.796;4.994;2023-06-10T10:22:01;28.00;70.30
48666;DHT22;34452;50.796;4.994;2023-06-10T10:24:33;28.20;68.70
48666;DHT22;34452;50.796;4.994;2023-06-10T10:27:01;28.30;69.10
48666;DHT22;34452;50.796;4.994;2023-06-10T10:29:37;28.30;67.20
48666;DHT22;34452;50.796;4.994;2023-06-10T10:32:04;28.20;65.80
48666;DHT22;34452;50.796;4.994;2023-06-10T10:34:41;28.10;66.00
48666;DHT22;34452;50.796;4.994;2023-06-10T10:37:09;28.20;65.00
48666;DHT22;34452;50.796;4.994;2023-06-10T10:39:35;28.40;62.70
48666;DHT22;34452;50.796;4.994;2023-06-10T10:42:02;28.60;60.50
48666;DHT22;34452;50.796;4.994;2023-06-10T10:44:30;28.80;60.90
48666;DHT22;34452;50.796;4.994;2023-06-10T10:46:56;28.90;59.80
48666;DHT22;34452;50.796;4.994;2023-06-10T10:49:22;28.80;58.10
48666;DHT22;34452;50.796;4.994;2023-06-10T10:52:01;28.60;56.40
48666;DHT22;34452;50.796;4.994;2023-06-10T10:54:30;28.60;59.80
48666;DHT22;34452;50.796;4.994;2023-06-10T10:57:17;28.60;56.40
48666;DHT22;34452;50.796;4.994;2023-06-10T10:59:55;29.00;59.00
48666;DHT22;34452;50.796;4.994;2023-06-10T11:05:32;29.50;56.50
48666;DHT22;34452;50.796;4.994;2023-06-10T11:07:57;29.50;56.90
48666;DHT22;34452;50.796;4.994;2023-06-10T11:10:34;29.50;53.20
48666;DHT22;34452;50.796;4.994;2023-06-10T11:13:05;29.70;52.80
48666;DHT22;34452;50.796;4.994;2023-06-10T11:15:31;29.70;53.80
48666;DHT22;34452;50.796;4.994;2023-06-10T11:31:24;30.20;50.30
48666;DHT22;34452;50.796;4.994;2023-06-10T11:36:40;30.50;49.30
48666;DHT22;34452;50.796;4.994;2023-06-10T11:39:08;30.60;49.30
48666;DHT22;34452;50.796;4.994;2023-06-10T11:41:35;30.70;48.70
48666;DHT22;34452;50.796;4.994;2023-06-10T11:44:04;30.90;47.20
48666;DHT22;34452;50.796;4.994;2023-06-10T11:46:30;31.00;47.20
48666;DHT22;34452;50.796;4.994;2023-06-10T11:48:58;30.60;47.70
48666;DHT22;34452;50.796;4.994;2023-06-10T11:51:26;30.60;47.00
48666;DHT22;34452;50.796;4.994;2023-06-10T11:53:53;30.60;47.60
48666;DHT22;34452;50.796;4.994;2023-06-10T11:56:21;30.90;45.50
48666;DHT22;34452;50.796;4.994;2023-06-10T11:58:53;31.20;45.40
48666;DHT22;34452;50.796;4.994;2023-06-10T12:01:21;31.40;42.80
48666;DHT22;34452;50.796;4.994;2023-06-10T12:03:47;31.60;42.90
48666;DHT22;34452;50.796;4.994;2023-06-10T12:06:13;31.70;42.70
48666;DHT22;34452;50.796;4.994;2023-06-10T12:08:54;31.90;44.70
48666;DHT22;34452;50.796;4.994;2023-06-10T12:11:21;31.90;42.30
48666;DHT22;34452;50.796;4.994;2023-06-10T12:13:49;31.80;43.00
48666;DHT22;34452;50.796;4.994;2023-06-10T12:16:16;31.80;41.30
48666;DHT22;34452;50.796;4.994;2023-06-10T12:18:45;32.00;44.50
48666;DHT22;34452;50.796;4.994;2023-06-10T12:21:24;31.70;40.30
48666;DHT22;34452;50.796;4.994;2023-06-10T12:24:03;31.70;40.30
48666;DHT22;34452;50.796;4.994;2023-06-10T12:26:47;31.80;40.40
48666;DHT22;34452;50.796;4.994;2023-06-10T12:29:28;31.50;40.40
48666;DHT22;34452;50.796;4.994;2023-06-10T12:31:57;31.60;40.90
48666;DHT22;34452;50.796;4.994;2023-06-10T12:34:37;31.60;42.40
48666;DHT22;34452;50.796;4.994;2023-06-10T12:37:05;31.30;43.80
48666;DHT22;34452;50.796;4.994;2023-06-10T12:39:33;31.40;42.40
48666;DHT22;34452;50.796;4.994;2023-06-10T12:41:59;31.30;42.80
48666;DHT22;34452;50.796;4.994;2023-06-10T12:44:44;31.50;43.20
48666;DHT22;34452;50.796;4.994;2023-06-10T12:47:11;31.70;46.30
48666;DHT22;34452;50.796;4.994;2023-06-10T12:49:38;31.70;44.80
48666;DHT22;34452;50.796;4.994;2023-06-10T12:52:05;31.70;42.10
48666;DHT22;34452;50.796;4.994;2023-06-10T12:54:31;31.60;44.30
48666;DHT22;34452;50.796;4.994;2023-06-10T12:56:57;31.70;42.90
48666;DHT22;34452;50.796;4.994;2023-06-10T12:59:23;31.90;41.70
48666;DHT22;34452;50.796;4.994;2023-06-10T13:01:51;31.70;43.40
48666;DHT22;34452;50.796;4.994;2023-06-10T13:04:18;31.90;43.70
48666;DHT22;34452;50.796;4.994;2023-06-10T13:06:45;32.20;40.20
48666;DHT22;34452;50.796;4.994;2023-06-10T13:09:13;32.40;39.00
48666;DHT22;34452;50.796;4.994;2023-06-10T13:11:39;32.60;38.80
48666;DHT22;34452;50.796;4.994;2023-06-10T13:14:06;32.50;40.70
48666;DHT22;34452;50.796;4.994;2023-06-10T13:16:32;32.70;40.90
48666;DHT22;34452;50.796;4.994;2023-06-10T13:18:58;32.80;41.60
48666;DHT22;34452;50.796;4.994;2023-06-10T13:21:24;33.00;40.90
48666;DHT22;34452;50.796;4.994;2023-06-10T13:23:51;33.20;41.10
48666;DHT22;34452;50.796;4.994;2023-06-10T13:26:17;32.60;39.70
48666;DHT22;34452;50.796;4.994;2023-06-10T13:28:43;32.50;39.00
48666;DHT22;34452;50.796;4.994;2023-06-10T13:31:10;32.50;41.50
48666;DHT22;34452;50.796;4.994;2023-06-10T13:33:36;32.80;42.00
48666;DHT22;34452;50.796;4.994;2023-06-10T13:36:01;33.00;41.00
48666;DHT22;34452;50.796;4.994;2023-06-10T13:38:27;32.80;40.70
48666;DHT22;34452;50.796;4.994;2023-06-10T13:40:53;33.10;40.30
48666;DHT22;34452;50.796;4.994;2023-06-10T13:43:19;33.30;38.00
48666;DHT22;34452;50.796;4.994;2023-06-10T13:45:44;33.40;40.20
48666;DHT22;34452;50.796;4.994;2023-06-10T13:48:10;33.30;38.10
48666;DHT22;34452;50.796;4.994;2023-06-10T13:50:37;33.30;39.50
48666;DHT22;34452;50.796;4.994;2023-06-10T13:53:03;33.50;38.80
48666;DHT22;34452;50.796;4.994;2023-06-10T13:55:29;33.50;36.70
48666;DHT22;34452;50.796;4.994;2023-06-10T13:57:55;33.30;39.00
48666;DHT22;34452;50.796;4.994;2023-06-10T14:00:21;33.50;38.50
48666;DHT22;34452;50.796;4.994;2023-06-10T14:02:46;33.60;38.60
48666;DHT22;34452;50.796;4.994;2023-06-10T14:05:12;33.50;37.20
48666;DHT22;34452;50.796;4.994;2023-06-10T14:07:38;33.40;38.70
48666;DHT22;34452;50.796;4.994;2023-06-10T14:10:05;33.50;38.80
48666;DHT22;34452;50.796;4.994;2023-06-10T14:12:31;33.50;38.00
48666;DHT22;34452;50.796;4.994;2023-06-10T14:14:57;33.70;39.10
48666;DHT22;34452;50.796;4.994;2023-06-10T14:17:22;33.90;39.00
48666;DHT22;34452;50.796;4.994;2023-06-10T14:19:48;34.10;39.00
48666;DHT22;34452;50.796;4.994;2023-06-10T14:22:14;34.10;39.20
48666;DHT22;34452;50.796;4.994;2023-06-10T14:24:40;34.10;40.30
48666;DHT22;34452;50.796;4.994;2023-06-10T14:27:06;34.00;39.40
48666;DHT22;34452;50.796;4.994;2023-06-10T14:29:31;34.20;38.40
48666;DHT22;34452;50.796;4.994;2023-06-10T14:31:59;34.00;36.10
48666;DHT22;34452;50.796;4.994;2023-06-10T14:34:25;33.80;40.00
48666;DHT22;34452;50.796;4.994;2023-06-10T14:37:06;34.10;37.60
48666;DHT22;34452;50.796;4.994;2023-06-10T14:39:33;34.30;37.30
48666;DHT22;34452;50.796;4.994;2023-06-10T14:41:58;34.50;37.00
48666;DHT22;34452;50.796;4.994;2023-06-10T14:44:24;34.20;34.80
48666;DHT22;34452;50.796;4.994;2023-06-10T14:46:50;34.10;35.90
48666;DHT22;34452;50.796;4.994;2023-06-10T14:49:15;34.00;36.50
48666;DHT22;34452;50.796;4.994;2023-06-10T14:51:41;34.40;38.40
48666;DHT22;34452;50.796;4.994;2023-06-10T14:54:07;34.70;38.40
48666;DHT22;34452;50.796;4.994;2023-06-10T14:56:32;35.00;37.20
48666;DHT22;34452;50.796;4.994;2023-06-10T14:58:58;35.20;36.70
48666;DHT22;34452;50.796;4.994;2023-06-10T15:01:24;35.40;36.60
48666;DHT22;34452;50.796;4.994;2023-06-10T15:03:49;35.60;37.70
48666;DHT22;34452;50.796;4.994;2023-06-10T15:06:15;36.10;34.80
48666;DHT22;34452;50.796;4.994;2023-06-10T15:08:46;36.40;33.70
48666;DHT22;34452;50.796;4.994;2023-06-10T15:11:15;35.40;33.20
48666;DHT22;34452;50.796;4.994;2023-06-10T15:13:41;34.40;33.20
48666;DHT22;34452;50.796;4.994;2023-06-10T15:16:06;33.70;34.30
48666;DHT22;34452;50.796;4.994;2023-06-10T15:18:32;33.80;33.70
48666;DHT22;34452;50.796;4.994;2023-06-10T15:20:58;34.60;35.60
48666;DHT22;34452;50.796;4.994;2023-06-10T15:23:24;35.10;34.40
48666;DHT22;34452;50.796;4.994;2023-06-10T15:25:50;35.90;34.70
48666;DHT22;34452;50.796;4.994;2023-06-10T15:28:16;36.50;34.80
48666;DHT22;34452;50.796;4.994;2023-06-10T15:30:41;36.90;32.60
48666;DHT22;34452;50.796;4.994;2023-06-10T15:33:07;37.30;32.10
48666;DHT22;34452;50.796;4.994;2023-06-10T15:35:33;37.60;33.30
48666;DHT22;34452;50.796;4.994;2023-06-10T15:37:59;37.70;31.40
48666;DHT22;34452;50.796;4.994;2023-06-10T15:40:25;38.00;31.30
48666;DHT22;34452;50.796;4.994;2023-06-10T15:42:51;37.70;32.80
48666;DHT22;34452;50.796;4.994;2023-06-10T15:45:17;38.10;31.50
48666;DHT22;34452;50.796;4.994;2023-06-10T15:47:43;37.90;30.70
48666;DHT22;34452;50.796;4.994;2023-06-10T15:50:09;36.80;32.00
48666;DHT22;34452;50.796;4.994;2023-06-10T15:52:35;36.20;33.70
48666;DHT22;34452;50.796;4.994;2023-06-10T15:55:01;36.30;33.90